Rockbridge, Ohio
Current Conditions -  °F | °C
As of 11:53 AM on Saturday 25 Oct 2014 (Local Time) from KLHQ Reporting Station
Broken Clouds Broken Clouds  
Wind Chill: 63°   Ceiling: 4600
Heat Index: 63°   Visibility: 10mi
Dew Point: 52°   Wind: 13mph
Humidity: 67%   Direction: 230°SW
Pressure: 29.95"   Gusts: NA
Location:  39.58°N, 82.52°W
Report Text: KLHQ 251553Z AUTO 23011KT 10SM BKN046 BKN070 17/11 A2995 RMK AO2 SLP141 T01720111
Loading
Personal Weather Stations






























Interactive Weather Map
Tropical Storm Tracking
New forecast layout! Learn more

10-Day Weather Forecast

Advertisements
Track Severe Weather on mobile